Time;durP1;ratioP1;P1;durP2;ratioP2;P2;SDS_P1;SDS_P2;PMS_P1;PMS_P2;Temp;Humidity;BMP_temperature;BMP_pressure;BME280_temperature;BME280_humidity;BME280_pressure;Samples;Min_cycle;Max_cycle;Signal;HPM_P1;HPM_P2
2021/07/12 00:00:25;;;;;;;4.50;3.10;;;;;;;20.16;42.12;101032.91;3553642;40;20042;-73
2021/07/12 00:02:55;;;;;;;5.25;3.25;;;;;;;20.14;42.21;101036.91;3550445;40;20595;-73
2021/07/12 00:05:24;;;;;;;4.22;2.90;;;;;;;20.10;42.10;101028.09;3553774;40;20041;-73
2021/07/12 00:07:53;;;;;;;4.10;2.78;;;;;;;20.09;41.90;101034.69;3549509;40;20284;-73
2021/07/12 00:10:24;;;;;;;5.25;3.30;;;;;;;20.09;42.11;101029.13;3548548;40;20327;-73
2021/07/12 00:12:53;;;;;;;5.30;3.50;;;;;;;20.06;42.35;101029.53;3554297;40;20120;-73
2021/07/12 00:15:23;;;;;;;5.00;3.10;;;;;;;20.04;42.55;101026.09;3556212;40;20070;-73
2021/07/12 00:17:51;;;;;;;5.43;3.42;;;;;;;20.02;42.51;101027.31;3550107;40;20048;-73
2021/07/12 00:20:22;;;;;;;3.83;2.88;;;;;;;20.01;42.20;101029.22;3554694;40;20053;-73
2021/07/12 00:22:51;;;;;;;3.75;2.97;;;;;;;19.99;42.46;101028.56;3548358;40;20321;-73
2021/07/12 00:25:21;;;;;;;5.07;3.53;;;;;;;19.97;42.79;101021.47;3549279;40;20053;-73
2021/07/12 00:27:50;;;;;;;4.95;3.78;;;;;;;19.92;42.41;101014.56;3552003;40;20034;-73
2021/07/12 00:30:20;;;;;;;5.15;3.53;;;;;;;19.90;42.79;101016.69;3555901;40;20085;-74
2021/07/12 00:32:49;;;;;;;6.20;3.60;;;;;;;19.87;42.78;101013.41;3562376;40;20041;-73
2021/07/12 00:35:18;;;;;;;4.75;3.40;;;;;;;19.84;42.38;101011.88;3554193;40;20446;-73
2021/07/12 00:37:48;;;;;;;5.22;3.25;;;;;;;19.82;42.53;101011.22;3553484;40;20042;-73
2021/07/12 00:40:18;;;;;;;5.32;3.08;;;;;;;19.79;42.66;101008.81;3547626;40;20058;-73
2021/07/12 00:42:49;;;;;;;4.57;3.22;;;;;;;19.77;42.97;101004.50;3553315;40;20046;-73
2021/07/12 00:45:19;;;;;;;5.18;3.72;;;;;;;19.74;42.72;101008.53;3551803;40;20519;-73
2021/07/12 00:47:49;;;;;;;4.75;3.20;;;;;;;19.71;43.07;101006.13;3552484;40;20394;-73
2021/07/12 00:50:18;;;;;;;4.55;3.05;;;;;;;19.68;42.78;101009.28;3553008;40;20089;-73
2021/07/12 00:52:50;;;;;;;5.50;3.35;;;;;;;19.67;42.55;101006.72;3553513;40;20043;-73
2021/07/12 00:55:23;;;;;;;4.97;3.10;;;;;;;19.64;42.97;100998.75;3548371;40;20217;-73
2021/07/12 00:57:54;;;;;;;5.90;3.75;;;;;;;19.61;43.10;101004.66;3563271;40;20049;-73
2021/07/12 01:00:24;;;;;;;6.25;3.88;;;;;;;19.62;42.84;101000.84;3556093;40;20081;-73
2021/07/12 01:02:54;;;;;;;4.80;3.08;;;;;;;19.60;42.98;100995.47;3553752;40;20034;-72
2021/07/12 01:05:27;;;;;;;4.90;3.55;;;;;;;19.60;43.13;100994.59;3556509;40;20046;-73
2021/07/12 01:07:57;;;;;;;5.15;3.55;;;;;;;19.60;43.11;100991.84;3554025;40;20471;-73
2021/07/12 01:10:29;;;;;;;4.95;3.15;;;;;;;19.58;42.87;100986.50;3550147;40;20060;-72
2021/07/12 01:13:10;;;;;;;6.55;3.40;;;;;;;19.59;43.56;100988.22;3555667;40;20381;-73
2021/07/12 01:15:50;;;;;;;5.30;3.57;;;;;;;19.55;43.62;100981.31;3552393;40;20053;-72
2021/07/12 01:18:32;;;;;;;5.07;3.42;;;;;;;19.54;43.00;100980.44;3554943;40;20288;-73
2021/07/12 01:21:49;;;;;;;5.50;3.38;;;;;;;19.44;43.16;100974.25;3554076;40;20042;-73
2021/07/12 01:24:49;;;;;;;6.93;3.83;;;;;;;19.45;43.69;100969.59;3553899;40;20082;-73
2021/07/12 01:27:45;;;;;;;5.47;4.10;;;;;;;19.45;43.47;100967.66;3550891;40;20131;-73
2021/07/12 01:30:17;;;;;;;6.03;3.72;;;;;;;19.44;43.24;100965.94;3547054;40;20326;-73
2021/07/12 01:33:02;;;;;;;4.95;4.00;;;;;;;19.42;43.64;100970.84;3551354;40;20322;-73
2021/07/12 01:35:43;;;;;;;5.13;3.60;;;;;;;19.42;43.42;100967.19;3550222;40;20147;-73
2021/07/12 01:38:23;;;;;;;4.93;3.53;;;;;;;19.41;43.57;100966.34;3552920;40;20051;-73
2021/07/12 01:41:11;;;;;;;5.68;3.83;;;;;;;19.41;43.18;100965.47;3551888;40;20035;-73
2021/07/12 01:43:44;;;;;;;5.15;3.78;;;;;;;19.40;43.32;100958.19;3552289;40;20073;-73
2021/07/12 01:46:19;;;;;;;5.32;4.38;;;;;;;19.39;43.39;100959.25;3554325;40;20030;-73
2021/07/12 01:49:01;;;;;;;4.60;3.80;;;;;;;19.39;43.57;100960.09;3553631;40;20414;-72
2021/07/12 01:51:39;;;;;;;5.55;3.85;;;;;;;19.36;43.86;100948.50;3553631;40;20042;-73
2021/07/12 01:54:12;;;;;;;4.90;4.05;;;;;;;19.36;43.80;100956.84;3561591;40;20054;-73
2021/07/12 01:56:47;;;;;;;5.97;4.20;;;;;;;19.33;43.50;100946.13;3558176;40;20077;-73
2021/07/12 01:59:22;;;;;;;5.22;4.18;;;;;;;19.30;43.39;100952.03;3559297;40;20519;-73
2021/07/12 02:01:51;;;;;;;6.38;4.80;;;;;;;19.27;43.74;100950.50;3548106;40;20039;-72
2021/07/12 02:04:26;;;;;;;5.80;4.70;;;;;;;19.28;44.00;100940.25;3550925;40;20056;-73
2021/07/12 02:06:59;;;;;;;5.85;4.32;;;;;;;19.24;43.97;100934.25;3554443;40;20042;-73
2021/07/12 02:09:35;;;;;;;5.72;3.95;;;;;;;19.22;43.38;100936.34;3559132;40;20056;-73
2021/07/12 02:12:03;;;;;;;6.40;4.65;;;;;;;19.22;43.96;100943.78;3554178;40;20353;-73
2021/07/12 02:14:44;;;;;;;5.47;4.55;;;;;;;19.21;43.41;100942.94;3555254;40;20054;-73
2021/07/12 02:17:15;;;;;;;6.28;4.40;;;;;;;19.22;43.89;100938.25;3564565;40;20048;-73
2021/07/12 02:19:48;;;;;;;6.13;4.78;;;;;;;19.22;44.10;100944.66;3567108;40;20365;-72
2021/07/12 02:22:16;;;;;;;6.50;4.68;;;;;;;19.17;43.69;100942.47;3563670;40;20086;-73
2021/07/12 02:24:55;;;;;;;5.68;4.45;;;;;;;19.18;43.81;100938.59;3554604;40;20062;-73
2021/07/12 02:27:25;;;;;;;5.50;4.32;;;;;;;19.16;43.75;100940.72;3554955;40;20049;-73
2021/07/12 02:29:56;;;;;;;6.97;4.75;;;;;;;19.18;43.37;100933.06;3555730;40;20049;-72
2021/07/12 02:32:26;;;;;;;5.78;4.65;;;;;;;19.17;43.87;100925.81;3551888;40;20361;-72
2021/07/12 02:34:59;;;;;;;6.72;4.78;;;;;;;19.18;43.93;100926.69;3555598;40;20112;-73
2021/07/12 02:37:35;;;;;;;7.57;4.50;;;;;;;19.15;43.60;100938.13;3561069;40;20031;-73
2021/07/12 02:40:04;;;;;;;6.80;4.43;;;;;;;19.15;43.29;100927.03;3552502;40;20405;-72
2021/07/12 02:42:35;;;;;;;5.63;4.32;;;;;;;19.11;43.65;100932.09;3555240;40;20050;-73
2021/07/12 02:45:05;;;;;;;7.25;4.80;;;;;;;19.13;43.97;100934.69;3556607;40;20056;-72
2021/07/12 02:47:34;;;;;;;6.80;4.82;;;;;;;19.12;43.75;100933.81;3554323;40;20046;-73
2021/07/12 02:50:07;;;;;;;6.07;5.15;;;;;;;19.13;44.34;100934.69;3555281;40;20058;-73
2021/07/12 02:52:48;;;;;;;5.93;4.50;;;;;;;19.11;43.83;100928.44;3553090;40;20046;-73
2021/07/12 02:55:16;;;;;;;6.80;4.72;;;;;;;19.08;43.56;100931.63;3556674;40;20052;-72
2021/07/12 02:57:45;;;;;;;7.22;5.45;;;;;;;19.07;43.80;100924.34;3550942;40;20048;-73
2021/07/12 03:00:17;;;;;;;7.80;5.47;;;;;;;19.04;43.81;100925.56;3559555;40;20148;-73
2021/07/12 03:02:45;;;;;;;6.90;5.10;;;;;;;19.00;44.25;100924.25;3554964;40;20109;-73
2021/07/12 03:05:16;;;;;;;6.63;5.15;;;;;;;18.99;43.83;100928.06;3555293;40;20034;-73
2021/07/12 03:07:55;;;;;;;6.97;4.80;;;;;;;18.97;43.81;100924.59;3549818;40;20113;-73
2021/07/12 03:10:27;;;;;;;6.18;4.65;;;;;;;18.94;44.06;100918.56;3553673;40;20587;-73
2021/07/12 03:12:59;;;;;;;5.72;4.63;;;;;;;18.92;44.41;100924.31;3550408;40;20054;-72
2021/07/12 03:15:33;;;;;;;6.93;5.25;;;;;;;18.92;43.82;100916.00;3554668;40;20381;-72
2021/07/12 03:18:04;;;;;;;6.97;5.47;;;;;;;18.91;43.87;100913.41;3554524;40;20509;-72
2021/07/12 03:20:37;;;;;;;7.47;5.68;;;;;;;18.90;44.30;100906.13;3556318;40;20281;-74
2021/07/12 03:23:13;;;;;;;6.72;5.65;;;;;;;18.90;44.30;100901.44;3562501;40;20594;-73
2021/07/12 03:25:47;;;;;;;8.00;5.40;;;;;;;18.87;43.84;100893.50;3558855;40;20136;-73
2021/07/12 03:28:18;;;;;;;6.70;5.35;;;;;;;18.86;43.82;100890.91;3557531;40;20054;-74
2021/07/12 03:30:48;;;;;;;7.82;5.70;;;;;;;18.79;43.99;100888.00;3553001;40;20062;-73
2021/07/12 03:33:20;;;;;;;6.65;5.35;;;;;;;18.80;44.31;100890.59;3554989;40;20491;-73
2021/07/12 03:35:52;;;;;;;6.50;5.10;;;;;;;18.77;44.13;100887.31;3551079;40;20042;-73
2021/07/12 03:38:22;;;;;;;7.88;5.70;;;;;;;18.76;44.39;100888.38;3561722;40;20053;-73
2021/07/12 03:40:51;;;;;;;7.00;5.40;;;;;;;18.75;44.25;100892.19;3551447;40;20132;-73
2021/07/12 03:43:23;;;;;;;7.32;5.88;;;;;;;18.72;44.20;100893.41;3553034;40;20046;-73
2021/07/12 03:45:54;;;;;;;8.48;5.88;;;;;;;18.75;44.39;100892.19;3551664;40;20141;-72
2021/07/12 03:48:37;;;;;;;9.25;5.85;;;;;;;18.74;44.77;100894.09;3562792;40;20050;-73
2021/07/12 03:51:09;;;;;;;6.17;5.27;;;;;;;18.73;44.67;100891.50;3552458;40;20139;-73
2021/07/12 03:53:40;;;;;;;7.38;6.20;;;;;;;18.70;44.48;100889.94;3555139;40;20281;-73
2021/07/12 03:56:09;;;;;;;8.82;6.28;;;;;;;18.72;44.32;100895.31;3554667;40;20046;-73
2021/07/12 03:58:37;;;;;;;6.93;5.53;;;;;;;18.71;44.37;100888.03;3554064;40;20062;-73
2021/07/12 04:01:06;;;;;;;7.50;5.40;;;;;;;18.71;44.45;100886.13;3553160;40;20266;-73
2021/07/12 04:03:34;;;;;;;7.07;5.90;;;;;;;18.69;44.48;100881.84;3555084;40;20061;-72
2021/07/12 04:06:03;;;;;;;6.40;5.45;;;;;;;18.69;44.19;100881.84;3555050;40;20124;-73
2021/07/12 04:08:32;;;;;;;7.72;5.78;;;;;;;18.70;44.27;100881.63;3554407;40;20049;-73
2021/07/12 04:11:00;;;;;;;7.38;5.88;;;;;;;18.67;44.53;100878.41;3550284;40;20049;-73
2021/07/12 04:13:28;;;;;;;7.45;5.65;;;;;;;18.68;44.41;100872.69;3553383;40;20069;-73
2021/07/12 04:15:56;;;;;;;7.85;6.53;;;;;;;18.68;44.42;100871.81;3553000;40;20042;-73
2021/07/12 04:18:24;;;;;;;7.32;5.85;;;;;;;18.67;44.51;100868.19;3556314;40;20136;-73
2021/07/12 04:20:52;;;;;;;8.02;6.25;;;;;;;18.67;44.78;100865.41;3553556;40;20050;-73
2021/07/12 04:23:20;;;;;;;7.32;5.97;;;;;;;18.67;44.65;100864.53;3554733;40;20062;-73
2021/07/12 04:25:50;;;;;;;8.68;5.60;;;;;;;18.69;44.55;100868.81;3552109;40;20038;-73
2021/07/12 04:28:18;;;;;;;7.13;5.18;;;;;;;18.68;44.93;100871.81;3554307;40;20056;-73
2021/07/12 04:30:47;;;;;;;7.28;6.00;;;;;;;18.69;45.22;100876.31;3560247;40;20427;-73
2021/07/12 04:33:15;;;;;;;7.25;5.63;;;;;;;18.68;44.78;100878.22;3558872;40;20535;-74
2021/07/12 04:35:43;;;;;;;7.68;5.85;;;;;;;18.69;44.73;100881.84;3552659;40;20385;-73
2021/07/12 04:38:11;;;;;;;7.72;5.63;;;;;;;18.69;45.28;100879.91;3552609;40;20406;-73
2021/07/12 04:40:39;;;;;;;7.63;5.60;;;;;;;18.70;44.90;100887.19;3558843;40;20321;-73
2021/07/12 04:43:09;;;;;;;8.70;6.40;;;;;;;18.73;45.03;100875.75;3551233;40;20413;-73
2021/07/12 04:45:38;;;;;;;7.18;5.85;;;;;;;18.73;44.82;100877.66;3551826;40;20128;-73
2021/07/12 04:48:06;;;;;;;7.03;5.82;;;;;;;18.74;45.05;100873.84;3554620;40;20066;-73
2021/07/12 04:50:35;;;;;;;7.40;6.03;;;;;;;18.75;45.37;100870.00;3553754;40;20061;-73
2021/07/12 04:53:07;;;;;;;;;;;;;;;18.48;45.50;100867.78;3551364;40;20046;-73
2021/07/12 04:55:35;;;;;;;7.07;5.13;;;;;;;18.72;45.46;100864.84;3551048;40;20001;-73
2021/07/12 04:58:04;;;;;;;7.82;5.55;;;;;;;18.77;45.43;100871.53;3552746;40;20057;-73
2021/07/12 05:00:35;;;;;;;7.93;6.38;;;;;;;18.80;45.10;100865.66;3553501;40;20143;-73
2021/07/12 05:03:06;;;;;;;7.75;6.15;;;;;;;18.79;44.91;100863.06;3555515;40;20062;-73
2021/07/12 05:05:34;;;;;;;8.27;6.03;;;;;;;18.81;45.33;100861.84;3539800;40;20112;-73
2021/07/12 05:08:02;;;;;;;8.88;6.07;;;;;;;18.81;45.05;100861.84;3558518;40;20055;-73
2021/07/12 05:10:30;;;;;;;7.18;5.82;;;;;;;18.83;45.68;100856.13;3551573;40;20090;-73
2021/07/12 05:12:58;;;;;;;7.93;5.95;;;;;;;18.84;45.65;100852.31;3552207;40;20058;-73
2021/07/12 05:15:27;;;;;;;7.30;5.95;;;;;;;18.86;45.40;100854.88;3553250;40;20319;-73
2021/07/12 05:17:56;;;;;;;8.77;6.45;;;;;;;18.89;46.09;100858.13;3548806;40;20045;-74
2021/07/12 05:20:24;;;;;;;8.70;6.63;;;;;;;18.90;46.07;100859.00;3555815;40;20048;-74
2021/07/12 05:22:52;;;;;;;8.80;6.32;;;;;;;18.93;45.61;100855.88;3553168;40;20441;-73
2021/07/12 05:25:20;;;;;;;8.00;5.97;;;;;;;18.94;45.60;100855.66;3550763;40;20052;-73
2021/07/12 05:27:48;;;;;;;9.15;6.32;;;;;;;18.98;45.71;100850.63;3550719;40;20090;-73
2021/07/12 05:30:17;;;;;;;8.95;6.82;;;;;;;19.02;46.20;100850.03;3549547;40;20406;-74
2021/07/12 05:32:45;;;;;;;8.48;6.53;;;;;;;19.05;45.70;100846.03;3553914;40;20054;-73
2021/07/12 05:35:14;;;;;;;8.90;6.45;;;;;;;19.11;46.14;100846.13;3549976;40;20061;-73
2021/07/12 05:37:43;;;;;;;8.15;5.78;;;;;;;19.12;46.06;100845.09;3551240;40;20074;-73
2021/07/12 05:40:12;;;;;;;7.55;6.13;;;;;;;19.17;45.95;100850.09;3550678;40;20056;-74
2021/07/12 05:42:40;;;;;;;8.75;5.90;;;;;;;19.19;46.07;100848.81;3550795;40;20413;-74
2021/07/12 05:45:09;;;;;;;8.73;5.70;;;;;;;19.24;46.01;100851.06;3553695;40;20144;-74
2021/07/12 05:47:37;;;;;;;7.40;5.70;;;;;;;19.27;46.16;100852.56;3551834;40;20042;-77
2021/07/12 05:50:07;;;;;;;6.88;5.40;;;;;;;19.31;45.87;100854.78;3552244;40;20058;-73
2021/07/12 05:52:37;;;;;;;7.07;5.93;;;;;;;19.37;45.64;100858.69;3551397;40;20037;-73
2021/07/12 05:55:06;;;;;;;7.13;5.38;;;;;;;19.39;45.94;100859.38;3553297;40;20306;-73
2021/07/12 05:57:34;;;;;;;6.65;5.32;;;;;;;19.42;46.08;100850.69;3555513;40;20042;-73
2021/07/12 06:00:03;;;;;;;6.85;5.55;;;;;;;19.47;46.14;100853.75;3556672;40;20143;-73
2021/07/12 06:02:39;;;;;;;6.57;5.53;;;;;;;19.50;45.79;100851.50;3551688;40;20406;-73
2021/07/12 06:05:08;;;;;;;7.03;5.40;;;;;;;19.56;45.54;100849.84;3554023;40;20050;-73
2021/07/12 06:07:38;;;;;;;6.75;5.13;;;;;;;19.62;45.36;100849.06;3552001;40;20402;-75
2021/07/12 06:10:08;;;;;;;7.78;5.47;;;;;;;19.68;45.49;100845.53;3554278;40;20045;-76
2021/07/12 06:12:36;;;;;;;6.97;5.47;;;;;;;19.70;45.68;100848.97;3550557;40;20544;-74
2021/07/12 06:15:05;;;;;;;7.20;5.25;;;;;;;19.75;45.71;100849.28;3551891;40;20049;-75
2021/07/12 06:17:34;;;;;;;7.60;5.85;;;;;;;19.78;45.63;100840.53;3554668;40;20409;-74
2021/07/12 06:20:03;;;;;;;7.22;5.47;;;;;;;19.83;45.31;100839.97;3562099;40;20427;-74
2021/07/12 06:22:31;;;;;;;7.40;5.38;;;;;;;19.87;45.50;100839.38;3563744;40;20143;-75
2021/07/12 06:25:01;;;;;;;7.40;5.50;;;;;;;19.93;45.74;100835.81;3557305;40;20049;-75
2021/07/12 06:27:29;;;;;;;7.75;5.70;;;;;;;19.95;45.37;100833.72;3557836;40;20045;-75
2021/07/12 06:29:57;;;;;;;7.03;5.65;;;;;;;20.02;45.40;100841.28;3557244;40;20058;-75
2021/07/12 06:32:25;;;;;;;7.43;5.10;;;;;;;20.06;45.36;100831.50;3556580;40;20046;-75
2021/07/12 06:34:53;;;;;;;6.95;4.93;;;;;;;20.11;45.50;100832.63;3557267;40;20101;-75
2021/07/12 06:37:21;;;;;;;8.15;5.20;;;;;;;20.17;45.85;100837.41;3556822;40;20116;-75
2021/07/12 06:39:49;;;;;;;6.60;5.13;;;;;;;20.23;45.53;100841.38;3557296;40;20159;-75
2021/07/12 06:42:18;;;;;;;7.10;5.00;;;;;;;20.31;45.25;100847.66;3551300;40;20042;-75
2021/07/12 06:44:46;;;;;;;7.25;5.47;;;;;;;20.36;45.44;100855.38;3551452;40;20053;-74
2021/07/12 06:47:15;;;;;;;7.18;5.25;;;;;;;20.41;45.68;100846.47;3555669;40;20034;-73
2021/07/12 06:49:46;;;;;;;7.10;5.33;;;;;;;20.45;45.23;100842.22;3556023;40;20050;-74
2021/07/12 06:52:14;;;;;;;7.18;5.47;;;;;;;20.52;45.45;100838.47;3556857;40;20285;-74
2021/07/12 06:54:45;;;;;;;6.78;5.28;;;;;;;20.58;45.23;100837.66;3556666;40;20147;-75
2021/07/12 06:57:13;;;;;;;6.45;5.00;;;;;;;20.65;44.98;100835.84;3555842;40;20038;-75
2021/07/12 06:59:42;;;;;;;6.30;4.97;;;;;;;20.74;45.63;100825.44;3557659;40;20141;-76
2021/07/12 07:02:11;;;;;;;6.07;5.00;;;;;;;20.81;45.47;100819.94;3553641;40;20041;-77
2021/07/12 07:04:41;;;;;;;6.30;5.00;;;;;;;20.88;45.14;100812.50;3568685;40;20049;-75
2021/07/12 07:07:12;;;;;;;7.65;5.25;;;;;;;21.00;45.84;100810.91;3555127;40;20232;-75
2021/07/12 07:09:40;;;;;;;6.43;5.25;;;;;;;21.10;45.34;100814.19;3555822;40;20077;-75
2021/07/12 07:12:09;;;;;;;6.93;5.35;;;;;;;21.21;45.61;100808.09;3555050;40;20077;-75
2021/07/12 07:14:49;;;;;;;6.20;4.95;;;;;;;21.35;45.51;100818.22;3554379;40;20139;-75
2021/07/12 07:17:17;;;;;;;6.45;4.50;;;;;;;21.45;45.34;100821.50;3555816;40;20127;-75
2021/07/12 07:19:45;;;;;;;9.52;5.15;;;;;;;21.57;44.99;100821.84;3556161;40;20414;-75
2021/07/12 07:22:13;;;;;;;6.50;4.93;;;;;;;21.70;44.75;100818.25;3555147;40;20528;-75
2021/07/12 07:24:52;;;;;;;5.88;4.88;;;;;;;21.83;45.07;100813.59;3556333;40;20391;-74
2021/07/12 07:27:41;;;;;;;5.78;4.55;;;;;;;21.97;44.61;100808.09;3554230;40;20518;-75
2021/07/12 07:30:12;;;;;;;5.90;4.53;;;;;;;22.12;43.99;100806.00;3556402;40;20127;-75
2021/07/12 07:32:41;;;;;;;5.30;4.43;;;;;;;22.19;44.84;100792.94;3555778;40;20034;-75
2021/07/12 07:35:10;;;;;;;6.50;4.72;;;;;;;22.36;44.04;100796.22;3557170;40;20135;-75
2021/07/12 07:37:39;;;;;;;5.75;4.50;;;;;;;22.48;43.81;100802.88;3555614;40;20415;-75
2021/07/12 07:40:10;;;;;;;5.53;4.32;;;;;;;22.62;43.69;100801.84;3550565;40;20656;-75
2021/07/12 07:42:38;;;;;;;6.15;4.18;;;;;;;22.73;43.70;100800.34;3551044;40;20350;-75
2021/07/12 07:45:09;;;;;;;6.25;4.05;;;;;;;22.87;43.79;100802.09;3550180;40;20516;-76
2021/07/12 07:47:38;;;;;;;5.93;4.50;;;;;;;23.01;43.58;100789.88;3555272;40;20395;-75
2021/07/12 07:50:20;;;;;;;6.05;4.47;;;;;;;23.12;43.57;100791.16;3557288;40;20330;-76
2021/07/12 07:52:49;;;;;;;5.65;4.25;;;;;;;23.25;43.05;100788.31;3554684;40;20053;-75
2021/07/12 07:55:17;;;;;;;5.35;4.35;;;;;;;23.37;42.75;100786.59;3549656;40;20062;-75
2021/07/12 07:57:45;;;;;;;5.47;4.15;;;;;;;23.48;42.67;100776.69;3555316;40;20390;-76
2021/07/12 08:00:15;;;;;;;5.32;3.80;;;;;;;23.61;41.91;100782.25;3555495;40;20065;-76
2021/07/12 08:02:45;;;;;;;5.30;4.35;;;;;;;23.71;41.74;100773.41;3554397;40;20042;-76
2021/07/12 08:05:13;;;;;;;5.38;3.83;;;;;;;23.80;41.25;100783.25;3555759;40;20140;-75
2021/07/12 08:07:41;;;;;;;5.35;3.40;;;;;;;23.87;41.36;100782.16;3555141;40;20042;-76
2021/07/12 08:10:11;;;;;;;5.85;3.78;;;;;;;23.96;41.45;100772.41;3556047;40;20061;-76
2021/07/12 08:12:41;;;;;;;4.97;3.92;;;;;;;24.03;40.95;100764.88;3552856;40;20038;-76
2021/07/12 08:15:12;;;;;;;4.70;3.33;;;;;;;24.14;40.65;100763.31;3555748;40;20050;-75
2021/07/12 08:17:40;;;;;;;4.35;3.42;;;;;;;24.19;40.57;100749.56;3554397;40;20042;-76
2021/07/12 08:20:16;;;;;;;5.00;3.55;;;;;;;24.29;40.22;100744.28;3555715;40;20046;-76
2021/07/12 08:22:51;;;;;;;4.90;3.55;;;;;;;24.33;40.49;100744.72;3555554;40;20048;-76
2021/07/12 08:25:21;;;;;;;4.47;3.42;;;;;;;24.42;39.89;100744.22;3556854;40;20053;-76
2021/07/12 08:27:50;;;;;;;4.22;3.45;;;;;;;24.50;39.78;100736.63;3555742;40;20046;-76
2021/07/12 08:30:18;;;;;;;5.00;3.80;;;;;;;24.56;39.72;100739.38;3549314;40;20412;-76
2021/07/12 08:32:47;;;;;;;5.07;3.40;;;;;;;24.62;39.53;100740.44;3555894;40;20360;-76
2021/07/12 08:35:17;;;;;;;4.75;3.20;;;;;;;24.70;39.54;100742.97;3549022;40;20066;-76
2021/07/12 08:37:49;;;;;;;4.20;2.90;;;;;;;24.75;39.58;100743.13;3554882;40;20065;-76
2021/07/12 08:40:20;;;;;;;4.18;2.80;;;;;;;24.84;39.47;100732.50;3549576;40;20062;-77
2021/07/12 08:42:50;;;;;;;4.35;2.88;;;;;;;24.89;39.30;100730.72;3552034;40;20111;-76
2021/07/12 08:45:19;;;;;;;4.32;3.33;;;;;;;24.96;39.15;100723.09;3554867;40;20131;-75
2021/07/12 08:47:47;;;;;;;4.13;2.83;;;;;;;25.04;39.06;100716.34;3554038;40;20050;-76
2021/07/12 08:50:16;;;;;;;4.22;2.80;;;;;;;25.15;38.51;100719.25;3548793;40;20050;-75
2021/07/12 08:52:45;;;;;;;3.53;2.58;;;;;;;25.20;38.30;100716.59;3555805;40;20060;-75
2021/07/12 08:55:13;;;;;;;3.97;2.80;;;;;;;25.27;38.35;100707.34;3555613;40;20116;-76
2021/07/12 08:57:56;;;;;;;3.95;2.53;;;;;;;25.36;37.41;100689.97;3553777;40;20492;-77
2021/07/12 09:00:37;;;;;;;4.28;2.65;;;;;;;25.44;37.69;100689.66;3551416;40;20270;-76
2021/07/12 09:03:28;;;;;;;3.80;2.35;;;;;;;25.48;37.37;100690.03;3549947;40;20489;-77
2021/07/12 09:06:00;;;;;;;3.60;2.60;;;;;;;25.59;37.73;100686.47;3550214;40;20043;-76
2021/07/12 09:08:46;;;;;;;3.13;2.15;;;;;;;25.66;37.47;100690.03;3552093;40;20056;-76
2021/07/12 09:11:30;;;;;;;3.70;2.63;;;;;;;25.73;37.22;100682.38;3560728;40;20026;-76
2021/07/12 09:14:03;;;;;;;3.83;2.47;;;;;;;25.82;35.77;100682.94;3550255;40;20056;-78
2021/07/12 09:16:43;;;;;;;3.67;2.33;;;;;;;25.89;35.57;100689.28;3552262;40;20370;-75
2021/07/12 09:19:14;;;;;;;4.28;2.55;;;;;;;25.93;36.07;100685.78;3554705;40;20128;-75
2021/07/12 09:21:45;;;;;;;3.47;2.63;;;;;;;25.97;35.76;100682.50;3555184;40;20044;-75
2021/07/12 09:24:15;;;;;;;3.17;2.25;;;;;;;25.96;36.03;100686.38;3555559;40;20476;-77
2021/07/12 09:26:45;;;;;;;3.80;2.45;;;;;;;26.01;36.10;100680.94;3562126;40;20042;-74
2021/07/12 09:29:18;;;;;;;3.85;2.40;;;;;;;26.05;35.92;100683.00;3556143;40;20050;-74
2021/07/12 09:31:46;;;;;;;3.17;2.15;;;;;;;26.07;36.34;100679.97;3554457;40;20434;-80
2021/07/12 09:34:15;;;;;;;2.83;2.10;;;;;;;26.10;35.72;100679.50;3553739;40;20058;-77
2021/07/12 09:36:45;;;;;;;2.97;1.90;;;;;;;26.17;35.96;100691.47;3555728;40;20049;-72
2021/07/12 09:39:35;;;;;;;3.10;1.90;;;;;;;26.19;35.03;100676.09;3556056;40;20058;-73
2021/07/12 09:42:06;;;;;;;3.35;2.22;;;;;;;26.25;35.72;100677.09;3554715;40;20038;-76
2021/07/12 09:44:36;;;;;;;2.63;1.92;;;;;;;26.27;35.60;100672.94;3552345;40;20054;-75
2021/07/12 09:47:07;;;;;;;3.20;2.10;;;;;;;26.34;35.42;100670.06;3552913;40;20045;-75
2021/07/12 09:49:36;;;;;;;2.83;1.90;;;;;;;26.36;34.63;100665.03;3554889;40;20066;-76
2021/07/12 09:52:09;;;;;;;3.17;2.28;;;;;;;26.47;34.49;100672.66;3553734;40;20070;-76
2021/07/12 09:54:40;;;;;;;2.90;2.17;;;;;;;26.52;34.89;100677.53;3553967;40;20054;-76
2021/07/12 09:57:12;;;;;;;2.80;1.92;;;;;;;26.59;34.65;100670.72;3553828;40;20120;-76
2021/07/12 09:59:54;;;;;;;3.38;2.20;;;;;;;26.65;34.44;100664.16;3553138;40;20112;-76
2021/07/12 10:02:25;;;;;;;3.63;2.22;;;;;;;26.72;34.15;100661.22;3555701;40;20054;-75
2021/07/12 10:04:58;;;;;;;3.40;2.45;;;;;;;26.80;33.58;100665.59;3553005;40;20046;-75
2021/07/12 10:07:29;;;;;;;4.57;2.40;;;;;;;26.84;33.36;100659.28;3552397;40;20034;-76
2021/07/12 10:09:57;;;;;;;3.47;2.10;;;;;;;26.86;33.93;100651.44;3551917;40;20090;-74
2021/07/12 10:12:26;;;;;;;3.40;2.25;;;;;;;26.86;33.84;100651.44;3548023;40;20640;-74
2021/07/12 10:14:55;;;;;;;2.60;2.00;;;;;;;26.88;33.34;100654.00;3551585;40;20065;-75
2021/07/12 10:17:24;;;;;;;2.92;2.05;;;;;;;26.87;33.52;100649.47;3551425;40;20323;-75
2021/07/12 10:19:56;;;;;;;3.58;2.28;;;;;;;26.87;33.38;100652.28;3553481;40;20057;-75
2021/07/12 10:22:34;;;;;;;4.10;2.35;;;;;;;26.90;33.05;100638.63;3554451;40;20054;-75
2021/07/12 10:25:07;;;;;;;2.97;2.15;;;;;;;26.90;32.99;100643.38;3553833;40;20291;-75
2021/07/12 10:27:48;;;;;;;2.72;2.00;;;;;;;26.90;32.70;100641.44;3553777;40;20041;-75
2021/07/12 10:30:29;;;;;;;3.03;2.05;;;;;;;26.91;32.11;100631.97;3553447;40;20094;-73
2021/07/12 10:32:59;;;;;;;2.95;2.05;;;;;;;26.90;32.96;100627.41;3553957;40;20038;-76
2021/07/12 10:35:38;;;;;;;3.00;1.77;;;;;;;26.93;32.36;100624.13;3555766;40;20061;-77
2021/07/12 10:38:09;;;;;;;2.88;2.00;;;;;;;26.91;32.44;100634.75;3554406;40;20061;-76
2021/07/12 10:41:01;;;;;;;2.63;1.75;;;;;;;26.87;32.66;100635.44;3554699;40;20646;-76
2021/07/12 10:43:47;;;;;;;2.53;1.80;;;;;;;26.86;32.50;100628.97;3543347;40;20050;-75
2021/07/12 10:46:39;;;;;;;4.03;2.30;;;;;;;26.83;31.65;100628.63;3548817;40;20335;-76
2021/07/12 10:49:40;;;;;;;3.70;2.00;;;;;;;26.78;31.22;100631.31;3554153;40;20062;-75
2021/07/12 10:52:42;;;;;;;3.10;2.15;;;;;;;26.69;31.66;100626.06;3553804;40;20089;-79
2021/07/12 10:55:12;;;;;;;3.30;2.10;;;;;;;26.65;31.90;100624.00;3556743;40;20034;-83
2021/07/12 10:57:41;;;;;;;3.40;2.15;;;;;;;26.60;32.02;100623.88;3556715;40;20056;-80
2021/07/12 11:00:12;;;;;;;2.65;1.92;;;;;;;26.58;32.05;100621.31;3552002;40;20116;-77
2021/07/12 11:02:41;;;;;;;3.17;1.90;;;;;;;26.52;31.89;100624.22;3553375;40;20050;-76
2021/07/12 11:05:16;;;;;;;2.50;1.75;;;;;;;26.52;30.94;100621.44;3550821;40;20101;-75
2021/07/12 11:07:46;;;;;;;3.25;2.05;;;;;;;26.46;31.63;100619.59;3551888;40;20034;-77
2021/07/12 11:10:24;;;;;;;3.38;2.47;;;;;;;26.45;31.09;100615.09;3554478;40;20410;-75
2021/07/12 11:12:57;;;;;;;2.67;1.95;;;;;;;26.41;31.41;100617.53;3549978;40;20479;-75
2021/07/12 11:15:36;;;;;;;2.90;2.03;;;;;;;26.39;31.25;100621.69;3552785;40;20392;-76
2021/07/12 11:18:28;;;;;;;3.53;1.85;;;;;;;26.36;31.77;100624.91;3552922;40;20041;-79
2021/07/12 11:21:02;;;;;;;4.05;1.85;;;;;;;26.34;31.51;100621.53;3552230;40;20087;-81
2021/07/12 11:23:51;;;;;;;2.70;2.03;;;;;;;26.30;31.67;100623.94;3551476;40;20405;-76
2021/07/12 11:26:51;;;;;;;3.10;2.13;;;;;;;26.26;31.57;100622.75;3553039;40;20301;-77
2021/07/12 11:29:34;;;;;;;3.38;1.98;;;;;;;26.31;31.62;100614.44;3543419;40;20073;-77
2021/07/12 11:32:13;;;;;;;2.83;1.80;;;;;;;26.31;31.85;100615.31;3554258;40;20056;-76
2021/07/12 11:34:50;;;;;;;2.72;1.85;;;;;;;26.31;31.33;100612.50;3561908;40;20061;-76
2021/07/12 11:37:20;;;;;;;2.70;1.90;;;;;;;26.30;31.84;100609.94;3555801;40;20050;-76
2021/07/12 11:39:50;;;;;;;3.33;2.00;;;;;;;26.29;31.64;100600.66;3550818;40;20099;-73
2021/07/12 11:42:28;;;;;;;3.28;2.15;;;;;;;26.31;31.50;100611.63;3551503;40;20045;-74
2021/07/12 11:44:59;;;;;;;2.28;1.80;;;;;;;26.27;31.20;100610.41;3562232;40;20461;-75
2021/07/12 11:47:30;;;;;;;4.03;2.40;;;;;;;26.25;31.22;100615.41;3539551;40;20038;-75